sensor_id;sensor_type;location;lat;lon;timestamp;pressure;altitude;pressure_sealevel;temperature;humidity
76598;BME280;65486;53.144;18.134;2023-12-20T00:01:31;100153.58;;;5.98;100.00
76598;BME280;65486;53.144;18.134;2023-12-20T00:03:58;100146.80;;;5.98;100.00
76598;BME280;65486;53.144;18.134;2023-12-20T00:06:25;100145.54;;;5.98;100.00
76598;BME280;65486;53.144;18.134;2023-12-20T00:08:52;100149.45;;;5.99;100.00
76598;BME280;65486;53.144;18.134;2023-12-20T00:11:20;100151.77;;;5.99;100.00
76598;BME280;65486;53.144;18.134;2023-12-20T00:13:47;100148.89;;;6.00;100.00
76598;BME280;65486;53.144;18.134;2023-12-20T00:16:19;100149.32;;;6.01;100.00
76598;BME280;65486;53.144;18.134;2023-12-20T00:18:52;100147.59;;;6.02;100.00
76598;BME280;65486;53.144;18.134;2023-12-20T00:21:19;100153.03;;;6.03;100.00
76598;BME280;65486;53.144;18.134;2023-12-20T00:23:48;100152.40;;;6.03;100.00
76598;BME280;65486;53.144;18.134;2023-12-20T00:26:16;100148.91;;;6.03;100.00
76598;BME280;65486;53.144;18.134;2023-12-20T00:28:49;100144.53;;;6.03;100.00
76598;BME280;65486;53.144;18.134;2023-12-20T00:31:18;100142.04;;;6.03;100.00
76598;BME280;65486;53.144;18.134;2023-12-20T00:33:45;100138.50;;;6.03;100.00
76598;BME280;65486;53.144;18.134;2023-12-20T00:36:14;100133.61;;;6.03;100.00
76598;BME280;65486;53.144;18.134;2023-12-20T00:38:40;100128.14;;;6.03;100.00
76598;BME280;65486;53.144;18.134;2023-12-20T00:41:10;100128.86;;;6.03;100.00
76598;BME280;65486;53.144;18.134;2023-12-20T00:43:38;100126.63;;;6.03;100.00
76598;BME280;65486;53.144;18.134;2023-12-20T00:46:09;100125.92;;;6.03;100.00
76598;BME280;65486;53.144;18.134;2023-12-20T00:48:39;100126.38;;;6.02;100.00
76598;BME280;65486;53.144;18.134;2023-12-20T00:51:08;100131.48;;;6.02;100.00
76598;BME280;65486;53.144;18.134;2023-12-20T00:53:37;100132.53;;;6.04;100.00
76598;BME280;65486;53.144;18.134;2023-12-20T00:56:06;100131.17;;;6.05;100.00
76598;BME280;65486;53.144;18.134;2023-12-20T00:58:36;100126.88;;;6.05;100.00
76598;BME280;65486;53.144;18.134;2023-12-20T01:01:03;100122.46;;;6.06;100.00
76598;BME280;65486;53.144;18.134;2023-12-20T01:03:30;100122.88;;;6.05;100.00
76598;BME280;65486;53.144;18.134;2023-12-20T01:05:57;100123.98;;;6.05;100.00
76598;BME280;65486;53.144;18.134;2023-12-20T01:08:25;100124.94;;;6.06;100.00
76598;BME280;65486;53.144;18.134;2023-12-20T01:10:53;100120.10;;;6.06;100.00
76598;BME280;65486;53.144;18.134;2023-12-20T01:13:20;100115.38;;;6.05;100.00
76598;BME280;65486;53.144;18.134;2023-12-20T01:15:50;100114.63;;;6.06;100.00
76598;BME280;65486;53.144;18.134;2023-12-20T01:18:17;100108.23;;;6.06;100.00
76598;BME280;65486;53.144;18.134;2023-12-20T01:20:44;100102.41;;;6.00;100.00
76598;BME280;65486;53.144;18.134;2023-12-20T01:23:12;100105.33;;;6.05;100.00
76598;BME280;65486;53.144;18.134;2023-12-20T01:25:39;100102.15;;;6.06;100.00
76598;BME280;65486;53.144;18.134;2023-12-20T01:28:06;100103.89;;;6.07;100.00
76598;BME280;65486;53.144;18.134;2023-12-20T01:30:34;100099.38;;;6.06;100.00
76598;BME280;65486;53.144;18.134;2023-12-20T01:33:00;100099.88;;;6.07;100.00
76598;BME280;65486;53.144;18.134;2023-12-20T01:35:31;100096.48;;;6.06;100.00
76598;BME280;65486;53.144;18.134;2023-12-20T01:37:58;100094.20;;;6.07;100.00
76598;BME280;65486;53.144;18.134;2023-12-20T01:40:25;100089.86;;;6.07;100.00
76598;BME280;65486;53.144;18.134;2023-12-20T01:43:08;100088.52;;;6.07;100.00
76598;BME280;65486;53.144;18.134;2023-12-20T01:45:36;100080.31;;;6.07;100.00
76598;BME280;65486;53.144;18.134;2023-12-20T01:48:05;100080.90;;;6.08;100.00
76598;BME280;65486;53.144;18.134;2023-12-20T01:50:35;100079.18;;;6.09;100.00
76598;BME280;65486;53.144;18.134;2023-12-20T01:53:03;100078.01;;;6.09;100.00
76598;BME280;65486;53.144;18.134;2023-12-20T01:55:35;100077.92;;;6.10;100.00
76598;BME280;65486;53.144;18.134;2023-12-20T01:58:03;100074.63;;;6.10;100.00
76598;BME280;65486;53.144;18.134;2023-12-20T02:00:35;100072.36;;;6.09;100.00
76598;BME280;65486;53.144;18.134;2023-12-20T02:03:04;100069.50;;;6.09;100.00
76598;BME280;65486;53.144;18.134;2023-12-20T02:05:47;100074.55;;;6.09;100.00
76598;BME280;65486;53.144;18.134;2023-12-20T02:08:15;100076.48;;;6.09;100.00
76598;BME280;65486;53.144;18.134;2023-12-20T02:10:43;100074.73;;;6.09;100.00
76598;BME280;65486;53.144;18.134;2023-12-20T02:13:10;100069.55;;;6.08;100.00
76598;BME280;65486;53.144;18.134;2023-12-20T02:15:38;100073.71;;;6.09;100.00
76598;BME280;65486;53.144;18.134;2023-12-20T02:18:05;100074.33;;;6.08;100.00
76598;BME280;65486;53.144;18.134;2023-12-20T02:20:32;100066.71;;;6.08;100.00
76598;BME280;65486;53.144;18.134;2023-12-20T02:23:00;100058.09;;;6.08;100.00
76598;BME280;65486;53.144;18.134;2023-12-20T02:25:27;100053.08;;;6.09;100.00
76598;BME280;65486;53.144;18.134;2023-12-20T02:27:55;100054.42;;;6.08;100.00
76598;BME280;65486;53.144;18.134;2023-12-20T02:30:23;100054.88;;;6.09;100.00
76598;BME280;65486;53.144;18.134;2023-12-20T02:32:55;100056.36;;;6.09;100.00
76598;BME280;65486;53.144;18.134;2023-12-20T02:35:23;100053.08;;;6.09;100.00
76598;BME280;65486;53.144;18.134;2023-12-20T02:37:50;100054.47;;;6.09;100.00
76598;BME280;65486;53.144;18.134;2023-12-20T02:40:17;100051.77;;;6.09;100.00
76598;BME280;65486;53.144;18.134;2023-12-20T02:42:44;100049.91;;;6.08;100.00
76598;BME280;65486;53.144;18.134;2023-12-20T02:45:11;100048.19;;;6.08;100.00
76598;BME280;65486;53.144;18.134;2023-12-20T02:47:38;100049.95;;;6.09;100.00
76598;BME280;65486;53.144;18.134;2023-12-20T02:50:06;100049.83;;;6.08;100.00
76598;BME280;65486;53.144;18.134;2023-12-20T02:52:33;100047.52;;;6.09;100.00
76598;BME280;65486;53.144;18.134;2023-12-20T02:55:01;100034.09;;;6.03;100.00
76598;BME280;65486;53.144;18.134;2023-12-20T02:57:28;100043.13;;;6.11;100.00
76598;BME280;65486;53.144;18.134;2023-12-20T02:59:55;100047.93;;;6.10;100.00
76598;BME280;65486;53.144;18.134;2023-12-20T03:02:24;100044.69;;;6.10;100.00
76598;BME280;65486;53.144;18.134;2023-12-20T03:04:51;100043.48;;;6.08;100.00
76598;BME280;65486;53.144;18.134;2023-12-20T03:07:18;100040.10;;;6.10;100.00
76598;BME280;65486;53.144;18.134;2023-12-20T03:09:45;100032.94;;;6.10;100.00
76598;BME280;65486;53.144;18.134;2023-12-20T03:12:12;99999.36;;;5.94;100.00
76598;BME280;65486;53.144;18.134;2023-12-20T03:14:39;100026.52;;;6.10;100.00
76598;BME280;65486;53.144;18.134;2023-12-20T03:17:07;100028.86;;;6.10;100.00
76598;BME280;65486;53.144;18.134;2023-12-20T03:19:33;100025.38;;;6.10;100.00
76598;BME280;65486;53.144;18.134;2023-12-20T03:22:02;100031.16;;;6.11;100.00
76598;BME280;65486;53.144;18.134;2023-12-20T03:24:31;100034.45;;;6.13;100.00
76598;BME280;65486;53.144;18.134;2023-12-20T03:26:58;100030.74;;;6.13;100.00
76598;BME280;65486;53.144;18.134;2023-12-20T03:29:25;100031.01;;;6.14;100.00
76598;BME280;65486;53.144;18.134;2023-12-20T03:31:52;100027.09;;;6.14;100.00
76598;BME280;65486;53.144;18.134;2023-12-20T03:34:29;100026.91;;;6.16;100.00
76598;BME280;65486;53.144;18.134;2023-12-20T03:37:03;100019.88;;;6.15;100.00
76598;BME280;65486;53.144;18.134;2023-12-20T03:39:31;100022.10;;;6.17;100.00
76598;BME280;65486;53.144;18.134;2023-12-20T03:41:59;100019.75;;;6.17;100.00
76598;BME280;65486;53.144;18.134;2023-12-20T03:44:33;100018.31;;;6.17;100.00
76598;BME280;65486;53.144;18.134;2023-12-20T03:47:01;100020.16;;;6.17;100.00
76598;BME280;65486;53.144;18.134;2023-12-20T03:49:28;100024.73;;;6.17;100.00
76598;BME280;65486;53.144;18.134;2023-12-20T03:51:55;100027.29;;;6.17;100.00
76598;BME280;65486;53.144;18.134;2023-12-20T03:54:22;100025.80;;;6.17;100.00
76598;BME280;65486;53.144;18.134;2023-12-20T03:56:49;100023.84;;;6.18;100.00
76598;BME280;65486;53.144;18.134;2023-12-20T03:59:28;100020.39;;;6.19;100.00
76598;BME280;65486;53.144;18.134;2023-12-20T04:01:57;100023.89;;;6.19;100.00
76598;BME280;65486;53.144;18.134;2023-12-20T04:04:26;100018.41;;;6.19;100.00
76598;BME280;65486;53.144;18.134;2023-12-20T04:06:53;100023.16;;;6.19;100.00
76598;BME280;65486;53.144;18.134;2023-12-20T04:09:21;100023.54;;;6.17;100.00
76598;BME280;65486;53.144;18.134;2023-12-20T04:11:51;100024.08;;;6.17;100.00
76598;BME280;65486;53.144;18.134;2023-12-20T04:14:18;100023.88;;;6.18;100.00
76598;BME280;65486;53.144;18.134;2023-12-20T04:16:45;100023.88;;;6.18;100.00
76598;BME280;65486;53.144;18.134;2023-12-20T04:19:12;100023.20;;;6.17;100.00
76598;BME280;65486;53.144;18.134;2023-12-20T04:21:39;100019.24;;;6.17;100.00
76598;BME280;65486;53.144;18.134;2023-12-20T04:24:07;100019.79;;;6.17;100.00
76598;BME280;65486;53.144;18.134;2023-12-20T04:26:35;100019.23;;;6.17;100.00
76598;BME280;65486;53.144;18.134;2023-12-20T04:29:04;100017.77;;;6.16;100.00
76598;BME280;65486;53.144;18.134;2023-12-20T04:31:34;100019.67;;;6.15;100.00
76598;BME280;65486;53.144;18.134;2023-12-20T04:34:02;100017.40;;;6.15;100.00
76598;BME280;65486;53.144;18.134;2023-12-20T04:36:30;100019.88;;;6.14;100.00
76598;BME280;65486;53.144;18.134;2023-12-20T04:38:58;100022.45;;;6.14;100.00
76598;BME280;65486;53.144;18.134;2023-12-20T04:41:27;100017.39;;;6.12;100.00
76598;BME280;65486;53.144;18.134;2023-12-20T04:43:55;100022.29;;;6.11;100.00
76598;BME280;65486;53.144;18.134;2023-12-20T04:46:25;100022.38;;;6.10;100.00
76598;BME280;65486;53.144;18.134;2023-12-20T04:48:52;100025.48;;;6.08;100.00
76598;BME280;65486;53.144;18.134;2023-12-20T04:51:20;100024.09;;;6.06;100.00
76598;BME280;65486;53.144;18.134;2023-12-20T04:53:47;100026.70;;;6.03;100.00
76598;BME280;65486;53.144;18.134;2023-12-20T04:56:15;100034.08;;;6.02;100.00
76598;BME280;65486;53.144;18.134;2023-12-20T04:58:44;100034.38;;;6.00;100.00
76598;BME280;65486;53.144;18.134;2023-12-20T05:01:16;100029.95;;;5.97;100.00
76598;BME280;65486;53.144;18.134;2023-12-20T05:03:44;100026.21;;;5.95;100.00
76598;BME280;65486;53.144;18.134;2023-12-20T05:06:11;100030.77;;;5.94;100.00
76598;BME280;65486;53.144;18.134;2023-12-20T05:08:39;100038.05;;;5.93;100.00
76598;BME280;65486;53.144;18.134;2023-12-20T05:11:06;100040.15;;;5.92;100.00
76598;BME280;65486;53.144;18.134;2023-12-20T05:13:36;100034.25;;;5.91;100.00
76598;BME280;65486;53.144;18.134;2023-12-20T05:16:17;100024.47;;;5.84;100.00
76598;BME280;65486;53.144;18.134;2023-12-20T05:18:56;100032.36;;;5.89;100.00
76598;BME280;65486;53.144;18.134;2023-12-20T05:21:27;100031.18;;;5.89;100.00
76598;BME280;65486;53.144;18.134;2023-12-20T05:24:03;100027.69;;;5.88;100.00
76598;BME280;65486;53.144;18.134;2023-12-20T05:26:30;100032.17;;;5.85;100.00
76598;BME280;65486;53.144;18.134;2023-12-20T05:28:57;100027.58;;;5.83;100.00
76598;BME280;65486;53.144;18.134;2023-12-20T05:31:24;100026.38;;;5.81;100.00
76598;BME280;65486;53.144;18.134;2023-12-20T05:33:51;100029.09;;;5.79;100.00
76598;BME280;65486;53.144;18.134;2023-12-20T05:36:19;100017.46;;;5.70;100.00
76598;BME280;65486;53.144;18.134;2023-12-20T05:38:47;100031.77;;;5.74;100.00
76598;BME280;65486;53.144;18.134;2023-12-20T05:41:15;100034.52;;;5.71;100.00
76598;BME280;65486;53.144;18.134;2023-12-20T05:43:45;100038.29;;;5.66;100.00
76598;BME280;65486;53.144;18.134;2023-12-20T05:46:15;100038.75;;;5.63;100.00
76598;BME280;65486;53.144;18.134;2023-12-20T05:48:45;100040.02;;;5.62;100.00
76598;BME280;65486;53.144;18.134;2023-12-20T05:51:12;100043.84;;;5.62;100.00
76598;BME280;65486;53.144;18.134;2023-12-20T05:53:40;100040.64;;;5.61;100.00
76598;BME280;65486;53.144;18.134;2023-12-20T05:56:07;100037.61;;;5.61;100.00
76598;BME280;65486;53.144;18.134;2023-12-20T05:58:36;100037.98;;;5.60;100.00
76598;BME280;65486;53.144;18.134;2023-12-20T06:01:11;100038.92;;;5.60;100.00
76598;BME280;65486;53.144;18.134;2023-12-20T06:03:41;100036.39;;;5.59;100.00
76598;BME280;65486;53.144;18.134;2023-12-20T06:06:09;100039.05;;;5.56;100.00
76598;BME280;65486;53.144;18.134;2023-12-20T06:08:36;100037.52;;;5.54;100.00
76598;BME280;65486;53.144;18.134;2023-12-20T06:11:05;100030.40;;;5.50;100.00
76598;BME280;65486;53.144;18.134;2023-12-20T06:13:35;100028.98;;;5.46;100.00
76598;BME280;65486;53.144;18.134;2023-12-20T06:16:05;100026.98;;;5.42;100.00
76598;BME280;65486;53.144;18.134;2023-12-20T06:18:33;100030.68;;;5.41;100.00
76598;BME280;65486;53.144;18.134;2023-12-20T06:21:02;100030.63;;;5.38;100.00
76598;BME280;65486;53.144;18.134;2023-12-20T06:23:33;100035.55;;;5.37;100.00
76598;BME280;65486;53.144;18.134;2023-12-20T06:26:00;100031.89;;;5.35;100.00
76598;BME280;65486;53.144;18.134;2023-12-20T06:28:27;100031.21;;;5.34;100.00
76598;BME280;65486;53.144;18.134;2023-12-20T06:31:00;100032.09;;;5.30;100.00
76598;BME280;65486;53.144;18.134;2023-12-20T06:33:27;100034.73;;;5.30;100.00
76598;BME280;65486;53.144;18.134;2023-12-20T06:35:57;100036.67;;;5.26;100.00
76598;BME280;65486;53.144;18.134;2023-12-20T06:38:24;100039.73;;;5.23;100.00
76598;BME280;65486;53.144;18.134;2023-12-20T06:40:51;100039.92;;;5.18;100.00
76598;BME280;65486;53.144;18.134;2023-12-20T06:43:18;100039.38;;;5.14;100.00
76598;BME280;65486;53.144;18.134;2023-12-20T06:45:45;100050.99;;;5.09;100.00
76598;BME280;65486;53.144;18.134;2023-12-20T06:48:12;100051.35;;;5.03;100.00
76598;BME280;65486;53.144;18.134;2023-12-20T06:50:40;100045.45;;;4.99;100.00
76598;BME280;65486;53.144;18.134;2023-12-20T06:53:09;100039.13;;;4.93;100.00
76598;BME280;65486;53.144;18.134;2023-12-20T06:55:36;100034.95;;;4.88;100.00
76598;BME280;65486;53.144;18.134;2023-12-20T06:58:05;100034.54;;;4.81;100.00
76598;BME280;65486;53.144;18.134;2023-12-20T07:00:32;100033.84;;;4.74;100.00
76598;BME280;65486;53.144;18.134;2023-12-20T07:03:00;100034.48;;;4.69;100.00
76598;BME280;65486;53.144;18.134;2023-12-20T07:05:27;100042.78;;;4.64;100.00
76598;BME280;65486;53.144;18.134;2023-12-20T07:07:54;100046.92;;;4.61;100.00
76598;BME280;65486;53.144;18.134;2023-12-20T07:10:22;100046.19;;;4.57;100.00
76598;BME280;65486;53.144;18.134;2023-12-20T07:12:49;100046.04;;;4.54;100.00
76598;BME280;65486;53.144;18.134;2023-12-20T07:15:16;100048.92;;;4.50;100.00
76598;BME280;65486;53.144;18.134;2023-12-20T07:17:43;100035.45;;;4.39;100.00
76598;BME280;65486;53.144;18.134;2023-12-20T07:20:14;100046.58;;;4.44;100.00
76598;BME280;65486;53.144;18.134;2023-12-20T07:22:42;100051.09;;;4.43;100.00
76598;BME280;65486;53.144;18.134;2023-12-20T07:25:12;100052.87;;;4.43;100.00
76598;BME280;65486;53.144;18.134;2023-12-20T07:27:46;100056.59;;;4.46;100.00
76598;BME280;65486;53.144;18.134;2023-12-20T07:30:14;100060.69;;;4.46;100.00
76598;BME280;65486;53.144;18.134;2023-12-20T07:32:42;100061.97;;;4.46;100.00
76598;BME280;65486;53.144;18.134;2023-12-20T07:35:09;100060.95;;;4.47;100.00
76598;BME280;65486;53.144;18.134;2023-12-20T07:37:37;100061.88;;;4.48;100.00
76598;BME280;65486;53.144;18.134;2023-12-20T07:40:04;100061.77;;;4.49;100.00
76598;BME280;65486;53.144;18.134;2023-12-20T07:42:32;100061.70;;;4.52;100.00
76598;BME280;65486;53.144;18.134;2023-12-20T07:44:59;100062.09;;;4.55;100.00
76598;BME280;65486;53.144;18.134;2023-12-20T07:47:26;100058.06;;;4.58;100.00
76598;BME280;65486;53.144;18.134;2023-12-20T07:49:53;100055.58;;;4.60;100.00
76598;BME280;65486;53.144;18.134;2023-12-20T07:52:20;100050.34;;;4.64;100.00
76598;BME280;65486;53.144;18.134;2023-12-20T07:54:50;100054.93;;;4.66;100.00
76598;BME280;65486;53.144;18.134;2023-12-20T07:57:31;100053.42;;;4.69;100.00
76598;BME280;65486;53.144;18.134;2023-12-20T07:59:58;100047.40;;;4.71;100.00
76598;BME280;65486;53.144;18.134;2023-12-20T08:02:25;100046.09;;;4.72;100.00
76598;BME280;65486;53.144;18.134;2023-12-20T08:04:52;100055.10;;;4.77;100.00
76598;BME280;65486;53.144;18.134;2023-12-20T08:07:20;100055.22;;;4.83;100.00
76598;BME280;65486;53.144;18.134;2023-12-20T08:09:47;100053.39;;;4.87;100.00
76598;BME280;65486;53.144;18.134;2023-12-20T08:12:15;100056.14;;;4.92;100.00
76598;BME280;65486;53.144;18.134;2023-12-20T08:14:43;100051.29;;;4.96;100.00
76598;BME280;65486;53.144;18.134;2023-12-20T08:17:13;100047.77;;;5.00;100.00
76598;BME280;65486;53.144;18.134;2023-12-20T08:19:43;100047.05;;;5.10;100.00
76598;BME280;65486;53.144;18.134;2023-12-20T08:22:11;100042.41;;;5.17;100.00
76598;BME280;65486;53.144;18.134;2023-12-20T08:24:38;100041.12;;;5.22;100.00
76598;BME280;65486;53.144;18.134;2023-12-20T08:27:05;100047.94;;;5.26;100.00
76598;BME280;65486;53.144;18.134;2023-12-20T08:29:33;100044.04;;;5.34;99.95
76598;BME280;65486;53.144;18.134;2023-12-20T08:32:00;100042.69;;;5.50;99.88
76598;BME280;65486;53.144;18.134;2023-12-20T08:34:27;100036.45;;;6.20;99.17
76598;BME280;65486;53.144;18.134;2023-12-20T08:36:55;100033.19;;;7.13;97.21
76598;BME280;65486;53.144;18.134;2023-12-20T08:39:22;100029.53;;;7.33;95.62
76598;BME280;65486;53.144;18.134;2023-12-20T08:41:49;100031.36;;;7.30;95.09
76598;BME280;65486;53.144;18.134;2023-12-20T08:44:16;100033.85;;;7.23;94.36
76598;BME280;65486;53.144;18.134;2023-12-20T08:46:45;100034.92;;;7.17;94.49
76598;BME280;65486;53.144;18.134;2023-12-20T08:49:15;100034.80;;;7.12;94.29
76598;BME280;65486;53.144;18.134;2023-12-20T08:51:42;100029.96;;;7.16;94.31
76598;BME280;65486;53.144;18.134;2023-12-20T08:54:09;100027.73;;;7.06;93.87
76598;BME280;65486;53.144;18.134;2023-12-20T08:56:37;100032.34;;;6.95;94.54
76598;BME280;65486;53.144;18.134;2023-12-20T08:59:05;100026.23;;;6.73;94.54
76598;BME280;65486;53.144;18.134;2023-12-20T09:01:32;100026.39;;;6.50;95.32
76598;BME280;65486;53.144;18.134;2023-12-20T09:04:01;100025.63;;;6.31;95.16
76598;BME280;65486;53.144;18.134;2023-12-20T09:06:38;100029.31;;;6.12;95.64
76598;BME280;65486;53.144;18.134;2023-12-20T09:09:06;100026.84;;;5.95;95.85
76598;BME280;65486;53.144;18.134;2023-12-20T09:11:36;100019.77;;;5.87;96.56
76598;BME280;65486;53.144;18.134;2023-12-20T09:14:05;100012.58;;;5.89;96.39
76598;BME280;65486;53.144;18.134;2023-12-20T09:16:34;100006.14;;;6.14;96.11
76598;BME280;65486;53.144;18.134;2023-12-20T09:19:01;100009.74;;;6.59;95.12
76598;BME280;65486;53.144;18.134;2023-12-20T09:21:28;100013.20;;;7.02;93.12
76598;BME280;65486;53.144;18.134;2023-12-20T09:23:55;100018.83;;;7.17;92.77
76598;BME280;65486;53.144;18.134;2023-12-20T09:26:22;100011.39;;;7.11;92.80
76598;BME280;65486;53.144;18.134;2023-12-20T09:28:49;100003.13;;;7.01;93.58
76598;BME280;65486;53.144;18.134;2023-12-20T09:31:17;99998.83;;;7.12;92.73
76598;BME280;65486;53.144;18.134;2023-12-20T09:33:46;99985.51;;;6.94;92.07
76598;BME280;65486;53.144;18.134;2023-12-20T09:36:18;99996.80;;;7.10;92.28
76598;BME280;65486;53.144;18.134;2023-12-20T09:38:47;99998.84;;;7.29;92.59
76598;BME280;65486;53.144;18.134;2023-12-20T09:41:14;99998.07;;;7.56;91.97
76598;BME280;65486;53.144;18.134;2023-12-20T09:43:41;100003.05;;;7.49;90.74
76598;BME280;65486;53.144;18.134;2023-12-20T09:46:11;99996.98;;;7.29;91.72
76598;BME280;65486;53.144;18.134;2023-12-20T09:48:40;99999.20;;;7.09;91.25
76598;BME280;65486;53.144;18.134;2023-12-20T09:51:08;99988.41;;;6.85;90.46
76598;BME280;65486;53.144;18.134;2023-12-20T09:53:36;99986.37;;;6.67;90.45
76598;BME280;65486;53.144;18.134;2023-12-20T09:56:05;99977.56;;;6.56;90.45
76598;BME280;65486;53.144;18.134;2023-12-20T09:58:37;99973.04;;;6.49;91.69
76598;BME280;65486;53.144;18.134;2023-12-20T10:01:06;99961.33;;;6.47;91.56
76598;BME280;65486;53.144;18.134;2023-12-20T10:03:34;99961.38;;;6.47;91.84
76598;BME280;65486;53.144;18.134;2023-12-20T10:06:02;99955.43;;;6.49;91.64
76598;BME280;65486;53.144;18.134;2023-12-20T10:08:30;99949.52;;;6.54;92.06
76598;BME280;65486;53.144;18.134;2023-12-20T10:10:59;99953.29;;;6.57;91.69
76598;BME280;65486;53.144;18.134;2023-12-20T10:13:29;99949.52;;;6.53;91.30
76598;BME280;65486;53.144;18.134;2023-12-20T10:15:56;99947.16;;;6.53;90.43
76598;BME280;65486;53.144;18.134;2023-12-20T10:18:24;99949.45;;;6.57;90.57
76598;BME280;65486;53.144;18.134;2023-12-20T10:20:52;99945.42;;;6.62;91.05
76598;BME280;65486;53.144;18.134;2023-12-20T10:23:20;99937.80;;;6.69;90.38
76598;BME280;65486;53.144;18.134;2023-12-20T10:25:58;99934.27;;;6.77;89.91
76598;BME280;65486;53.144;18.134;2023-12-20T10:28:26;99929.90;;;6.92;90.32
76598;BME280;65486;53.144;18.134;2023-12-20T10:30:55;99924.30;;;7.03;90.02
76598;BME280;65486;53.144;18.134;2023-12-20T10:33:27;99917.12;;;7.06;89.99
76598;BME280;65486;53.144;18.134;2023-12-20T10:36:05;99916.33;;;7.05;90.12
76598;BME280;65486;53.144;18.134;2023-12-20T10:38:36;99909.81;;;7.00;90.00
76598;BME280;65486;53.144;18.134;2023-12-20T10:41:07;99905.17;;;6.93;89.81
76598;BME280;65486;53.144;18.134;2023-12-20T10:43:36;99904.31;;;6.84;89.65
76598;BME280;65486;53.144;18.134;2023-12-20T10:46:05;99900.82;;;6.75;89.58
76598;BME280;65486;53.144;18.134;2023-12-20T10:48:34;99903.32;;;6.72;90.25
76598;BME280;65486;53.144;18.134;2023-12-20T10:51:02;99893.89;;;6.69;90.44
76598;BME280;65486;53.144;18.134;2023-12-20T10:53:31;99889.86;;;6.65;89.90
76598;BME280;65486;53.144;18.134;2023-12-20T10:56:00;99891.66;;;6.60;90.43
76598;BME280;65486;53.144;18.134;2023-12-20T10:58:32;99885.24;;;6.54;90.28
76598;BME280;65486;53.144;18.134;2023-12-20T11:01:01;99880.51;;;6.50;90.71
76598;BME280;65486;53.144;18.134;2023-12-20T11:03:38;99878.42;;;6.46;90.66
76598;BME280;65486;53.144;18.134;2023-12-20T11:06:18;99876.63;;;6.40;91.04
76598;BME280;65486;53.144;18.134;2023-12-20T11:14:24;99850.23;;;6.20;90.87
76598;BME280;65486;53.144;18.134;2023-12-20T11:17:09;99842.31;;;6.13;90.46
76598;BME280;65486;53.144;18.134;2023-12-20T11:19:43;99834.50;;;6.05;90.97
76598;BME280;65486;53.144;18.134;2023-12-20T11:22:27;99829.89;;;5.98;90.94
76598;BME280;65486;53.144;18.134;2023-12-20T11:25:06;99826.64;;;5.90;90.79
76598;BME280;65486;53.144;18.134;2023-12-20T11:27:41;99827.72;;;5.82;91.20
76598;BME280;65486;53.144;18.134;2023-12-20T11:30:10;99823.44;;;5.79;91.87
76598;BME280;65486;53.144;18.134;2023-12-20T11:32:39;99821.80;;;5.79;91.96
76598;BME280;65486;53.144;18.134;2023-12-20T11:37:40;99805.90;;;5.77;92.02
76598;BME280;65486;53.144;18.134;2023-12-20T11:40:12;99805.98;;;5.76;91.91
76598;BME280;65486;53.144;18.134;2023-12-20T11:42:43;99793.91;;;5.77;91.83
76598;BME280;65486;53.144;18.134;2023-12-20T11:45:11;99790.84;;;5.78;91.91
76598;BME280;65486;53.144;18.134;2023-12-20T11:47:46;99785.23;;;5.80;91.74
76598;BME280;65486;53.144;18.134;2023-12-20T11:50:16;99784.33;;;5.81;92.03
76598;BME280;65486;53.144;18.134;2023-12-20T11:52:44;99786.23;;;5.82;91.84
76598;BME280;65486;53.144;18.134;2023-12-20T11:55:11;99777.90;;;5.81;91.97
76598;BME280;65486;53.144;18.134;2023-12-20T11:57:39;99772.89;;;5.81;92.16
76598;BME280;65486;53.144;18.134;2023-12-20T12:00:08;99769.66;;;5.78;91.84
76598;BME280;65486;53.144;18.134;2023-12-20T12:02:42;99751.02;;;5.65;92.08
76598;BME280;65486;53.144;18.134;2023-12-20T12:05:11;99763.38;;;5.72;92.25
76598;BME280;65486;53.144;18.134;2023-12-20T12:07:38;99755.13;;;5.71;92.38
76598;BME280;65486;53.144;18.134;2023-12-20T12:10:06;99753.52;;;5.71;92.92
76598;BME280;65486;53.144;18.134;2023-12-20T12:12:35;99746.55;;;5.72;92.88
76598;BME280;65486;53.144;18.134;2023-12-20T12:15:03;99751.88;;;5.71;93.09
76598;BME280;65486;53.144;18.134;2023-12-20T12:17:30;99744.06;;;5.69;93.04
76598;BME280;65486;53.144;18.134;2023-12-20T12:20:05;99746.59;;;5.70;93.16
76598;BME280;65486;53.144;18.134;2023-12-20T12:22:32;99743.40;;;5.69;93.00
76598;BME280;65486;53.144;18.134;2023-12-20T12:25:09;99735.99;;;5.69;92.98
76598;BME280;65486;53.144;18.134;2023-12-20T12:27:39;99727.98;;;5.62;93.33
76598;BME280;65486;53.144;18.134;2023-12-20T12:30:10;99734.87;;;5.64;93.42
76598;BME280;65486;53.144;18.134;2023-12-20T12:32:39;99728.53;;;5.62;93.47
76598;BME280;65486;53.144;18.134;2023-12-20T12:35:07;99725.55;;;5.59;93.50
76598;BME280;65486;53.144;18.134;2023-12-20T12:37:39;99716.85;;;5.56;93.80
76598;BME280;65486;53.144;18.134;2023-12-20T12:40:11;99712.23;;;5.55;94.02
76598;BME280;65486;53.144;18.134;2023-12-20T12:42:41;99713.55;;;5.53;93.89
76598;BME280;65486;53.144;18.134;2023-12-20T12:45:09;99711.07;;;5.53;94.23
76598;BME280;65486;53.144;18.134;2023-12-20T12:47:41;99707.20;;;5.50;94.54
76598;BME280;65486;53.144;18.134;2023-12-20T12:50:11;99702.95;;;5.49;94.75
76598;BME280;65486;53.144;18.134;2023-12-20T12:52:39;99696.11;;;5.48;94.63
76598;BME280;65486;53.144;18.134;2023-12-20T12:55:06;99693.38;;;5.45;94.69
76598;BME280;65486;53.144;18.134;2023-12-20T12:57:34;99695.07;;;5.44;94.60
76598;BME280;65486;53.144;18.134;2023-12-20T13:00:01;99693.23;;;5.41;94.66
76598;BME280;65486;53.144;18.134;2023-12-20T13:02:30;99688.55;;;5.41;94.83